createdAt,value
2023-04-11T00:00:29.119Z,0.90
2023-04-11T00:03:00.139Z,3.00
2023-04-11T00:05:28.088Z,1.60
2023-04-11T00:07:54.630Z,2.63
2023-04-11T00:10:21.565Z,2.38
2023-04-11T00:12:48.077Z,2.55
2023-04-11T00:15:16.052Z,1.73
2023-04-11T00:17:45.697Z,3.08
2023-04-11T00:20:13.034Z,2.85
2023-04-11T00:22:39.539Z,1.50
2023-04-11T00:25:07.036Z,3.00
2023-04-11T00:27:33.582Z,2.42
2023-04-11T00:30:00.760Z,5.60
2023-04-11T00:32:27.393Z,3.78
2023-04-11T00:34:53.886Z,2.53
2023-04-11T00:37:23.125Z,1.35
2023-04-11T00:39:54.072Z,1.92
2023-04-11T00:42:20.498Z,1.92
2023-04-11T00:44:47.051Z,3.35
2023-04-11T00:47:14.213Z,4.15
2023-04-11T00:49:41.195Z,3.58
2023-04-11T00:52:08.375Z,5.32
2023-04-11T00:54:35.186Z,5.05
2023-04-11T00:57:03.693Z,2.72
2023-04-11T00:59:32.175Z,3.33
2023-04-11T01:01:59.618Z,3.30
2023-04-11T01:04:26.253Z,2.83
2023-04-11T01:06:56.501Z,2.03
2023-04-11T01:09:25.581Z,2.10
2023-04-11T01:11:52.279Z,5.45
2023-04-11T01:14:20.606Z,4.38
2023-04-11T01:16:48.480Z,5.68
2023-04-11T01:19:19.431Z,2.90
2023-04-11T01:21:48.308Z,2.75
2023-04-11T01:24:14.849Z,6.00
2023-04-11T01:26:41.391Z,4.63
2023-04-11T01:29:07.814Z,6.15
2023-04-11T01:31:34.376Z,5.85
2023-04-11T01:34:01.616Z,4.22
2023-04-11T01:36:29.525Z,4.72
2023-04-11T01:38:56.276Z,5.15
2023-04-11T01:41:25.797Z,12.02
2023-04-11T01:43:52.509Z,5.78
2023-04-11T01:46:19.483Z,6.78
2023-04-11T01:48:46.122Z,6.90
2023-04-11T01:51:12.648Z,8.55
2023-04-11T01:53:39.076Z,11.57
2023-04-11T01:56:06.054Z,8.45
2023-04-11T01:58:32.585Z,7.88
2023-04-11T02:00:59.009Z,8.00
2023-04-11T02:03:25.542Z,6.90
2023-04-11T02:05:52.205Z,9.95
2023-04-11T02:08:18.631Z,8.13
2023-04-11T02:10:45.141Z,6.97
2023-04-11T02:13:11.697Z,10.45
2023-04-11T02:15:38.219Z,7.03
2023-04-11T02:18:04.984Z,10.07
2023-04-11T02:20:31.503Z,12.00
2023-04-11T02:22:58.919Z,7.20
2023-04-11T02:25:25.439Z,12.43
2023-04-11T02:27:51.875Z,7.95
2023-04-11T02:30:18.309Z,13.30
2023-04-11T02:32:46.532Z,10.27
2023-04-11T02:35:13.022Z,12.07
2023-04-11T02:37:39.454Z,10.40
2023-04-11T02:40:06.954Z,15.40
2023-04-11T02:42:33.700Z,19.08
2023-04-11T02:45:00.492Z,11.30
2023-04-11T02:47:27.064Z,9.93
2023-04-11T02:49:53.575Z,11.35
2023-04-11T02:52:20.132Z,10.35
2023-04-11T02:54:46.690Z,11.23
2023-04-11T02:57:13.168Z,20.92
2023-04-11T02:59:39.675Z,11.77
2023-04-11T03:02:06.177Z,13.57
2023-04-11T03:04:32.800Z,10.70
2023-04-11T03:06:59.286Z,12.55
2023-04-11T03:09:25.961Z,13.07
2023-04-11T03:11:52.380Z,13.63
2023-04-11T03:14:18.936Z,15.13
2023-04-11T03:16:45.330Z,11.10
2023-04-11T03:19:11.755Z,16.80
2023-04-11T03:21:38.242Z,14.63
2023-04-11T03:24:05.025Z,14.27
2023-04-11T03:26:32.277Z,8.65
2023-04-11T03:28:59.039Z,17.13
2023-04-11T03:31:25.756Z,15.75
2023-04-11T03:33:52.350Z,15.70
2023-04-11T03:36:18.823Z,13.20
2023-04-11T03:38:45.329Z,13.40
2023-04-11T03:41:11.852Z,14.10
2023-04-11T03:43:38.260Z,18.20
2023-04-11T03:46:04.966Z,15.43
2023-04-11T03:48:31.389Z,9.25
2023-04-11T03:50:57.866Z,16.87
2023-04-11T03:53:24.280Z,16.30
2023-04-11T03:55:52.731Z,17.50
2023-04-11T03:58:19.211Z,10.65
2023-04-11T04:00:46.412Z,18.13
2023-04-11T04:03:13.794Z,16.17
2023-04-11T04:05:41.297Z,13.10
2023-04-11T04:08:07.974Z,14.63
2023-04-11T04:10:35.505Z,12.97
2023-04-11T04:13:01.951Z,19.30
2023-04-11T04:15:28.402Z,13.20
2023-04-11T04:17:55.020Z,20.37
2023-04-11T04:20:21.585Z,10.50
2023-04-11T04:22:48.074Z,19.50
2023-04-11T04:25:17.317Z,14.27
2023-04-11T04:27:44.435Z,12.63
2023-04-11T04:30:15.365Z,9.15
2023-04-11T04:32:45.431Z,19.20
2023-04-11T04:35:14.168Z,12.55
2023-04-11T04:37:45.449Z,16.37
2023-04-11T04:40:20.793Z,16.77
2023-04-11T04:42:58.096Z,13.57
2023-04-11T04:45:25.878Z,13.43
2023-04-11T04:47:52.370Z,9.10
2023-04-11T04:50:19.864Z,13.87
2023-04-11T04:52:46.551Z,16.20
2023-04-11T04:55:14.023Z,10.23
2023-04-11T04:57:40.556Z,16.00
2023-04-11T05:00:11.445Z,11.55
2023-04-11T05:02:38.305Z,12.93
2023-04-11T05:05:05.316Z,11.97
2023-04-11T05:07:31.800Z,16.03
2023-04-11T05:09:58.339Z,16.48
2023-04-11T05:12:27.190Z,14.70
2023-04-11T05:14:55.398Z,8.63
2023-04-11T05:17:24.714Z,14.73
2023-04-11T05:19:52.118Z,15.57
2023-04-11T05:22:18.568Z,15.93
2023-04-11T05:24:45.068Z,14.10
2023-04-11T05:27:11.538Z,10.98
2023-04-11T05:29:38.034Z,16.33
2023-04-11T05:32:04.694Z,14.32
2023-04-11T05:34:32.548Z,16.05
2023-04-11T05:36:59.104Z,15.85
2023-04-11T05:39:25.618Z,18.67
2023-04-11T05:41:52.113Z,15.77
2023-04-11T05:44:18.633Z,14.90
2023-04-11T05:46:45.440Z,12.07
2023-04-11T05:49:12.298Z,9.23
2023-04-11T05:51:38.739Z,12.75
2023-04-11T05:54:05.857Z,12.32
2023-04-11T05:56:32.305Z,10.55
2023-04-11T05:58:58.721Z,8.53
2023-04-11T06:01:26.244Z,10.70
2023-04-11T06:03:52.972Z,14.35
2023-04-11T06:06:19.638Z,9.35
2023-04-11T06:08:46.152Z,10.30
2023-04-11T06:11:12.615Z,11.07
2023-04-11T06:13:39.038Z,6.18
2023-04-11T06:16:06.699Z,13.45
2023-04-11T06:18:33.205Z,11.65
2023-04-11T06:20:59.660Z,13.27
2023-04-11T06:23:27.250Z,11.43
2023-04-11T06:25:53.755Z,14.25
2023-04-11T06:28:20.326Z,12.30
2023-04-11T06:30:46.773Z,13.23
2023-04-11T06:33:13.210Z,9.32
2023-04-11T06:35:39.639Z,13.25
2023-04-11T06:38:06.073Z,7.35
2023-04-11T06:40:34.384Z,11.85
2023-04-11T06:43:01.842Z,9.48
2023-04-11T06:45:28.248Z,13.95
2023-04-11T06:47:54.752Z,15.05
2023-04-11T06:50:21.333Z,13.15
2023-04-11T06:52:47.824Z,15.70
2023-04-11T06:55:15.558Z,18.48
2023-04-11T06:57:43.494Z,15.75
2023-04-11T07:00:12.276Z,12.18
2023-04-11T07:02:39.517Z,19.58
2023-04-11T07:05:06.657Z,18.02
2023-04-11T07:07:33.044Z,13.80
2023-04-11T07:09:59.461Z,12.90
2023-04-11T07:12:25.892Z,15.02
2023-04-11T07:14:52.452Z,14.18
2023-04-11T07:17:18.940Z,13.02
2023-04-11T07:19:45.352Z,13.48
2023-04-11T07:22:11.881Z,10.80
2023-04-11T07:24:38.372Z,7.40
2023-04-11T07:27:04.824Z,13.98
2023-04-11T07:29:31.664Z,14.05
2023-04-11T07:31:58.298Z,13.75
2023-04-11T07:34:24.854Z,11.07
2023-04-11T07:36:51.322Z,6.38
2023-04-11T07:39:17.743Z,10.50
2023-04-11T07:41:44.858Z,10.10
2023-04-11T07:44:11.364Z,8.68
2023-04-11T07:46:37.848Z,11.77
2023-04-11T07:49:04.387Z,13.73
2023-04-11T07:51:31.290Z,11.02
2023-04-11T07:53:57.979Z,7.53
2023-04-11T07:56:24.531Z,7.22
2023-04-11T07:58:51.043Z,12.43
2023-04-11T08:01:25.496Z,19.92
2023-04-11T08:03:55.643Z,11.00
2023-04-11T08:06:22.857Z,10.75
2023-04-11T08:08:51.372Z,11.50
2023-04-11T08:11:18.026Z,14.68
2023-04-11T08:13:45.041Z,12.95
2023-04-11T08:16:11.920Z,9.93
2023-04-11T08:18:42.068Z,6.95
2023-04-11T08:21:11.353Z,12.57
2023-04-11T08:23:42.736Z,9.07
2023-04-11T08:26:10.674Z,9.40
2023-04-11T08:28:37.252Z,11.30
2023-04-11T08:31:04.992Z,8.70
2023-04-11T08:33:31.483Z,15.85
2023-04-11T08:35:58.007Z,9.98
2023-04-11T08:38:24.541Z,8.63
2023-04-11T08:40:51.485Z,7.38
2023-04-11T08:43:18.283Z,10.27
2023-04-11T08:45:44.839Z,8.77
2023-04-11T08:48:12.454Z,13.55
2023-04-11T08:50:44.088Z,8.38
2023-04-11T08:53:11.545Z,12.73
2023-04-11T08:55:48.150Z,8.13
2023-04-11T08:58:14.674Z,9.00
2023-04-11T09:00:41.129Z,11.95
2023-04-11T09:03:11.556Z,6.90
2023-04-11T09:05:43.510Z,6.53
2023-04-11T09:08:17.128Z,7.97
2023-04-11T09:10:45.542Z,8.82
2023-04-11T09:13:26.079Z,8.35
2023-04-11T09:16:09.877Z,4.65
2023-04-11T09:18:41.520Z,6.00
2023-04-11T09:21:14.188Z,6.80
2023-04-11T09:23:41.207Z,4.13
2023-04-11T09:26:09.784Z,11.20
2023-04-11T09:28:52.738Z,6.78
2023-04-11T09:31:20.042Z,6.13
2023-04-11T09:33:58.299Z,7.90
2023-04-11T09:36:29.070Z,5.82
2023-04-11T09:38:56.477Z,4.82
2023-04-11T09:41:38.699Z,9.73
2023-04-11T09:44:05.236Z,6.63
2023-04-11T09:46:31.741Z,8.82
2023-04-11T09:48:58.207Z,5.85
2023-04-11T09:51:35.747Z,3.90
2023-04-11T09:54:04.467Z,7.22
2023-04-11T09:56:31.654Z,5.43
2023-04-11T09:59:00.147Z,3.97
2023-04-11T10:01:27.235Z,7.85
2023-04-11T10:03:56.124Z,3.75
2023-04-11T10:06:34.103Z,6.10
2023-04-11T10:09:09.586Z,4.65
2023-04-11T10:11:36.704Z,5.63
2023-04-11T10:14:03.840Z,4.18
2023-04-11T10:16:33.942Z,5.18
2023-04-11T10:19:04.444Z,5.35
2023-04-11T10:21:30.804Z,4.55
2023-04-11T10:24:07.112Z,5.43
2023-04-11T10:26:50.011Z,1.63
2023-04-11T10:29:40.886Z,4.82
2023-04-11T10:32:16.462Z,4.00
2023-04-11T10:34:51.743Z,4.38
2023-04-11T10:37:30.703Z,3.10
2023-04-11T10:40:09.669Z,5.13
2023-04-11T10:42:39.175Z,5.88
2023-04-11T10:45:30.828Z,3.55
2023-04-11T10:47:57.292Z,3.28
2023-04-11T10:50:23.848Z,4.03
2023-04-11T10:52:50.347Z,5.38
2023-04-11T10:55:18.041Z,4.60
2023-04-11T10:58:03.361Z,2.78
2023-04-11T11:00:30.652Z,4.93
2023-04-11T11:03:00.474Z,4.47
2023-04-11T11:05:27.029Z,6.35
2023-04-11T11:07:53.756Z,3.70
2023-04-11T11:10:40.421Z,5.65
2023-04-11T11:13:07.517Z,3.60
2023-04-11T11:15:37.725Z,4.68
2023-04-11T11:18:07.229Z,3.38
2023-04-11T11:20:34.707Z,3.28
2023-04-11T11:23:02.910Z,5.35
2023-04-11T11:25:29.739Z,5.97
2023-04-11T11:28:03.355Z,3.78
2023-04-11T11:30:29.912Z,5.22
2023-04-11T11:32:57.061Z,5.00
2023-04-11T11:35:24.607Z,4.75
2023-04-11T11:37:54.513Z,6.32
2023-04-11T11:40:22.597Z,2.42
2023-04-11T11:42:50.834Z,4.78
2023-04-11T11:45:23.665Z,3.75
2023-04-11T11:47:50.429Z,2.78
2023-04-11T11:50:27.673Z,4.85
2023-04-11T11:52:54.489Z,6.32
2023-04-11T11:55:22.333Z,6.60
2023-04-11T11:57:50.140Z,7.20
2023-04-11T12:00:25.016Z,7.10
2023-04-11T12:02:52.862Z,5.00
2023-04-11T12:05:19.947Z,6.95
2023-04-11T12:07:46.437Z,5.75
2023-04-11T12:10:17.287Z,6.35
2023-04-11T12:12:53.566Z,5.25
2023-04-11T12:15:23.571Z,5.55
2023-04-11T12:17:51.910Z,3.50
2023-04-11T12:20:26.584Z,7.25
2023-04-11T12:22:54.931Z,9.35
2023-04-11T12:25:22.039Z,3.90
2023-04-11T12:27:48.855Z,4.30
2023-04-11T12:30:15.442Z,4.40
2023-04-11T12:32:42.645Z,3.20
2023-04-11T12:35:10.240Z,5.05
2023-04-11T12:37:36.958Z,3.03
2023-04-11T12:40:10.713Z,5.60
2023-04-11T12:45:11.952Z,6.32
2023-04-11T12:47:38.886Z,3.17
2023-04-11T12:50:07.130Z,5.38
2023-04-11T12:52:34.143Z,7.60
2023-04-11T12:55:01.067Z,4.90
2023-04-11T12:57:28.100Z,5.75
2023-04-11T12:59:54.621Z,5.25
2023-04-11T13:02:21.269Z,6.07
2023-04-11T13:04:48.723Z,5.75
2023-04-11T13:07:15.379Z,4.65
2023-04-11T13:09:42.135Z,7.63
2023-04-11T13:12:08.563Z,4.55
2023-04-11T13:14:36.422Z,8.43
2023-04-11T13:17:03.467Z,4.60
2023-04-11T13:19:29.945Z,6.60
2023-04-11T13:21:56.463Z,6.15
2023-04-11T13:24:22.903Z,6.60
2023-04-11T13:26:49.306Z,5.65
2023-04-11T13:29:15.942Z,5.28
2023-04-11T13:31:42.433Z,5.45
2023-04-11T13:34:08.934Z,4.32
2023-04-11T13:36:35.529Z,5.38
2023-04-11T13:39:02.198Z,4.78
2023-04-11T13:41:28.660Z,5.82
2023-04-11T13:43:55.139Z,5.68
2023-04-11T13:46:21.745Z,5.05
2023-04-11T13:48:48.584Z,4.30
2023-04-11T13:51:15.356Z,3.55
2023-04-11T13:53:41.827Z,5.07
2023-04-11T13:56:08.532Z,5.32
2023-04-11T13:58:35.432Z,3.60
2023-04-11T14:01:01.965Z,3.85
2023-04-11T14:03:33.153Z,5.07
2023-04-11T14:06:00.951Z,3.55
2023-04-11T14:08:28.850Z,3.95
2023-04-11T14:10:56.095Z,3.97
2023-04-11T14:13:22.812Z,6.60
2023-04-11T14:15:52.213Z,3.03
2023-04-11T14:18:31.805Z,5.30
2023-04-11T14:21:01.133Z,6.47
2023-04-11T14:23:28.642Z,4.95
2023-04-11T14:25:55.348Z,8.13
2023-04-11T14:28:21.883Z,4.75
2023-04-11T14:30:48.573Z,6.32
2023-04-11T14:33:15.581Z,5.20
2023-04-11T14:35:42.838Z,5.43
2023-04-11T14:38:09.253Z,4.13
2023-04-11T14:40:35.782Z,4.35
2023-04-11T14:43:02.231Z,8.20
2023-04-11T14:45:28.691Z,3.20
2023-04-11T14:47:55.392Z,6.18
2023-04-11T14:50:21.926Z,7.05
2023-04-11T14:52:48.318Z,5.30
2023-04-11T14:55:14.765Z,5.35
2023-04-11T14:57:46.524Z,6.80
2023-04-11T15:00:19.401Z,7.45
2023-04-11T15:02:47.532Z,8.98
2023-04-11T15:05:16.260Z,9.75
2023-04-11T15:07:42.945Z,6.75
2023-04-11T15:10:09.763Z,6.03
2023-04-11T15:12:36.253Z,7.03
2023-04-11T15:15:03.341Z,7.05
2023-04-11T15:17:29.774Z,7.35
2023-04-11T15:19:56.830Z,4.88
2023-04-11T15:22:23.307Z,7.03
2023-04-11T15:24:49.790Z,8.48
2023-04-11T15:27:16.219Z,7.68
2023-04-11T15:29:42.663Z,4.78
2023-04-11T15:32:09.053Z,5.93
2023-04-11T15:34:35.467Z,5.07
2023-04-11T15:37:02.027Z,5.35
2023-04-11T15:39:28.526Z,7.55
2023-04-11T15:41:54.947Z,5.03
2023-04-11T15:44:21.423Z,3.65
2023-04-11T15:46:49.456Z,6.55
2023-04-11T15:49:16.024Z,5.95
2023-04-11T15:51:45.054Z,5.45
2023-04-11T15:54:11.686Z,8.27
2023-04-11T15:56:38.229Z,6.85
2023-04-11T15:59:04.694Z,6.38
2023-04-11T16:01:31.494Z,5.80
2023-04-11T16:03:58.776Z,7.53
2023-04-11T16:06:25.933Z,5.53
2023-04-11T16:08:52.315Z,8.50
2023-04-11T16:11:20.369Z,7.43
2023-04-11T16:13:46.932Z,4.88
2023-04-11T16:16:13.382Z,6.57
2023-04-11T16:18:40.331Z,4.72
2023-04-11T16:21:15.983Z,3.97
2023-04-11T16:23:42.915Z,5.65
2023-04-11T16:26:09.618Z,6.43
2023-04-11T16:28:36.042Z,7.05
2023-04-11T16:31:02.437Z,6.60
2023-04-11T16:33:28.839Z,5.03
2023-04-11T16:35:55.668Z,8.70
2023-04-11T16:38:22.405Z,7.30
2023-04-11T16:40:49.796Z,6.78
2023-04-11T16:43:16.477Z,9.10
2023-04-11T16:45:43.273Z,6.95
2023-04-11T16:48:09.720Z,9.48
2023-04-11T16:50:36.210Z,6.63
2023-04-11T16:53:02.747Z,3.95
2023-04-11T16:55:29.266Z,9.48
2023-04-11T16:57:55.804Z,7.38
2023-04-11T17:00:22.550Z,8.30
2023-04-11T17:02:49.228Z,6.15
2023-04-11T17:05:18.828Z,7.60
2023-04-11T17:07:45.401Z,6.45
2023-04-11T17:10:11.906Z,8.27
2023-04-11T17:12:38.457Z,6.95
2023-04-11T17:15:07.005Z,7.25
2023-04-11T17:17:33.958Z,7.03
2023-04-11T17:20:07.240Z,3.88
2023-04-11T17:22:33.775Z,4.88
2023-04-11T17:25:00.205Z,8.50
2023-04-11T17:27:26.599Z,6.28
2023-04-11T17:29:53.050Z,7.72
2023-04-11T17:32:19.520Z,8.23
2023-04-11T17:34:47.900Z,5.53
2023-04-11T17:37:14.331Z,5.50
2023-04-11T17:39:41.954Z,6.38
2023-04-11T17:42:08.469Z,4.00
2023-04-11T17:44:35.250Z,7.88
2023-04-11T17:47:01.698Z,6.40
2023-04-11T17:49:28.171Z,6.28
2023-04-11T17:51:58.949Z,7.38
2023-04-11T17:54:26.102Z,4.43
2023-04-11T17:56:52.648Z,5.53
2023-04-11T17:59:19.227Z,5.43
2023-04-11T18:01:47.036Z,6.60
2023-04-11T18:04:14.614Z,11.00
2023-04-11T18:06:42.446Z,8.65
2023-04-11T18:09:09.120Z,5.90
2023-04-11T18:11:36.269Z,5.93
2023-04-11T18:14:02.693Z,8.27
2023-04-11T18:16:29.264Z,7.78
2023-04-11T18:18:57.006Z,5.38
2023-04-11T18:21:23.493Z,7.50
2023-04-11T18:23:49.976Z,7.28
2023-04-11T18:26:16.513Z,9.10
2023-04-11T18:28:43.018Z,7.20
2023-04-11T18:31:09.824Z,9.75
2023-04-11T18:33:39.625Z,7.45
2023-04-11T18:36:07.940Z,8.20
2023-04-11T18:38:34.379Z,8.80
2023-04-11T18:41:06.761Z,8.68
2023-04-11T18:43:33.864Z,10.95
2023-04-11T18:46:01.766Z,10.20
2023-04-11T18:48:28.210Z,8.38
2023-04-11T18:51:01.398Z,7.40
2023-04-11T18:53:29.810Z,7.03
2023-04-11T18:55:56.389Z,8.55
2023-04-11T18:58:25.620Z,6.57
2023-04-11T19:00:53.211Z,7.13
2023-04-11T19:03:20.089Z,6.88
2023-04-11T19:05:47.981Z,8.77
2023-04-11T19:08:14.711Z,10.05
2023-04-11T19:10:41.229Z,6.55
2023-04-11T19:13:07.735Z,4.93
2023-04-11T19:15:34.234Z,7.07
2023-04-11T19:18:01.660Z,8.77
2023-04-11T19:20:29.374Z,8.27
2023-04-11T19:22:55.853Z,10.18
2023-04-11T19:25:22.309Z,6.47
2023-04-11T19:27:49.669Z,5.85
2023-04-11T19:30:16.282Z,6.53
2023-04-11T19:32:47.811Z,6.85
2023-04-11T19:35:14.495Z,8.40
2023-04-11T19:37:41.191Z,7.43
2023-04-11T19:40:10.715Z,5.65
2023-04-11T19:42:39.069Z,6.78
2023-04-11T19:45:06.511Z,8.57
2023-04-11T19:47:33.170Z,6.28
2023-04-11T19:50:00.962Z,4.28
2023-04-11T19:52:28.157Z,7.30
2023-04-11T19:54:56.354Z,5.63
2023-04-11T19:57:23.889Z,5.95
2023-04-11T19:59:50.843Z,5.03
2023-04-11T20:02:17.455Z,7.07
2023-04-11T20:04:45.719Z,7.53
2023-04-11T20:07:12.493Z,4.72
2023-04-11T20:09:38.953Z,6.43
2023-04-11T20:12:06.647Z,7.28
2023-04-11T20:14:33.598Z,7.30
2023-04-11T20:17:00.183Z,5.70
2023-04-11T20:19:28.441Z,8.02
2023-04-11T20:21:57.274Z,6.18
2023-04-11T20:24:24.006Z,6.80
2023-04-11T20:26:51.187Z,8.02
2023-04-11T20:29:18.142Z,5.63
2023-04-11T20:31:44.930Z,7.38
2023-04-11T20:34:11.576Z,5.72
2023-04-11T20:36:38.427Z,6.13
2023-04-11T20:39:05.257Z,5.47
2023-04-11T20:41:32.255Z,9.18
2023-04-11T20:43:59.604Z,7.38
2023-04-11T20:46:29.560Z,7.43
2023-04-11T20:48:56.191Z,8.90
2023-04-11T20:51:22.688Z,8.85
2023-04-11T20:53:49.242Z,4.80
2023-04-11T20:56:15.761Z,6.13
2023-04-11T20:58:42.621Z,6.97
2023-04-11T21:01:09.071Z,7.50
2023-04-11T21:03:37.713Z,6.10
2023-04-11T21:06:07.328Z,8.45
2023-04-11T21:08:35.233Z,7.85
2023-04-11T21:11:02.043Z,6.45
2023-04-11T21:13:28.654Z,5.88
2023-04-11T21:15:55.087Z,7.60
2023-04-11T21:18:21.557Z,4.22
2023-04-11T21:20:47.944Z,7.43
2023-04-11T21:23:14.360Z,4.38
2023-04-11T21:25:41.225Z,4.85
2023-04-11T21:28:07.641Z,3.95
2023-04-11T21:30:34.178Z,4.75
2023-04-11T21:33:00.706Z,4.30
2023-04-11T21:35:27.362Z,6.13
2023-04-11T21:37:53.786Z,6.13
2023-04-11T21:40:20.343Z,5.20
2023-04-11T21:42:46.788Z,5.97
2023-04-11T21:45:13.347Z,5.97
2023-04-11T21:47:39.917Z,6.20
2023-04-11T21:50:07.046Z,8.05
2023-04-11T21:52:33.552Z,5.53
2023-04-11T21:55:00.017Z,4.38
2023-04-11T21:57:26.987Z,6.47
2023-04-11T21:59:53.437Z,6.95
2023-04-11T22:02:20.112Z,6.90
2023-04-11T22:05:04.040Z,7.95
2023-04-11T22:07:38.995Z,5.45
2023-04-11T22:10:09.570Z,5.78
2023-04-11T22:12:36.615Z,8.57
2023-04-11T22:15:05.114Z,5.88
2023-04-11T22:17:32.176Z,5.03
2023-04-11T22:19:58.670Z,10.23
2023-04-11T22:22:27.747Z,11.27
2023-04-11T22:24:57.775Z,7.93
2023-04-11T22:27:26.217Z,9.43
2023-04-11T22:29:56.199Z,7.22
2023-04-11T22:32:23.721Z,12.13
2023-04-11T22:34:50.218Z,6.70
2023-04-11T22:37:16.799Z,8.70
2023-04-11T22:39:43.210Z,9.45
2023-04-11T22:42:11.493Z,8.98
2023-04-11T22:44:37.972Z,14.85
2023-04-11T22:47:08.075Z,11.70
2023-04-11T22:49:41.702Z,11.55
2023-04-11T22:52:10.720Z,8.90
2023-04-11T22:54:38.472Z,9.10
2023-04-11T22:57:04.899Z,5.68
2023-04-11T22:59:31.613Z,10.32
2023-04-11T23:01:58.283Z,11.55
2023-04-11T23:04:24.779Z,11.50
2023-04-11T23:06:51.452Z,6.38
2023-04-11T23:09:18.245Z,8.95
2023-04-11T23:11:45.314Z,8.65
2023-04-11T23:14:12.206Z,10.30
2023-04-11T23:16:38.757Z,10.25
2023-04-11T23:19:05.237Z,7.70
2023-04-11T23:21:32.091Z,9.45
2023-04-11T23:23:58.966Z,7.75
2023-04-11T23:26:25.508Z,5.32
2023-04-11T23:28:52.903Z,9.10
2023-04-11T23:31:19.489Z,5.85
2023-04-11T23:33:46.432Z,4.15
2023-04-11T23:36:13.676Z,6.13
2023-04-11T23:38:40.148Z,5.78
2023-04-11T23:41:06.997Z,10.82
2023-04-11T23:43:33.583Z,10.30
2023-04-11T23:46:00.166Z,8.48
2023-04-11T23:48:26.592Z,8.85
2023-04-11T23:50:53.011Z,9.15
2023-04-11T23:53:19.437Z,5.93
2023-04-11T23:55:45.938Z,8.00
2023-04-11T23:58:12.346Z,6.80
